sensor_id;sensor_type;location;lat;lon;timestamp;pressure;altitude;pressure_sealevel;temperature;humidity
16431;BME280;8325;49.284;7.238;2022-11-20T05:03:56;98244.56;;;6.90;98.41
16431;BME280;8325;49.284;7.238;2022-11-20T05:08:08;98253.00;;;6.92;98.34
16431;BME280;8325;49.284;7.238;2022-11-20T05:12:19;98242.91;;;6.89;98.92
16431;BME280;8325;49.284;7.238;2022-11-20T05:16:34;98239.56;;;6.97;98.56
16431;BME280;8325;49.284;7.238;2022-11-20T05:20:46;98238.09;;;6.94;98.99
16431;BME280;8325;49.284;7.238;2022-11-20T05:24:58;98245.06;;;6.94;98.84
16431;BME280;8325;49.284;7.238;2022-11-20T05:29:11;98236.47;;;6.93;99.32
16431;BME280;8325;49.284;7.238;2022-11-20T05:33:23;98238.56;;;6.98;99.13
16431;BME280;8325;49.284;7.238;2022-11-20T05:37:34;98246.00;;;6.92;99.76
16431;BME280;8325;49.284;7.238;2022-11-20T05:41:46;98239.06;;;6.93;99.96
16431;BME280;8325;49.284;7.238;2022-11-20T05:45:57;98240.81;;;6.92;100.00
16431;BME280;8325;49.284;7.238;2022-11-20T05:50:09;98244.56;;;6.90;100.00
16431;BME280;8325;49.284;7.238;2022-11-20T05:54:20;98251.19;;;6.92;100.00
16431;BME280;8325;49.284;7.238;2022-11-20T05:58:33;98243.41;;;6.92;100.00
16431;BME280;8325;49.284;7.238;2022-11-20T06:02:45;98247.81;;;6.92;100.00
16431;BME280;8325;49.284;7.238;2022-11-20T06:06:56;98249.13;;;6.96;100.00
16431;BME280;8325;49.284;7.238;2022-11-20T06:11:09;98250.75;;;6.97;100.00
16431;BME280;8325;49.284;7.238;2022-11-20T06:15:21;98244.56;;;6.98;100.00
16431;BME280;8325;49.284;7.238;2022-11-20T06:19:33;98249.13;;;6.96;100.00
16431;BME280;8325;49.284;7.238;2022-11-20T06:23:45;98254.97;;;6.98;100.00
16431;BME280;8325;49.284;7.238;2022-11-20T06:27:57;98249.75;;;6.98;100.00
16431;BME280;8325;49.284;7.238;2022-11-20T06:32:08;98256.28;;;7.02;99.93
16431;BME280;8325;49.284;7.238;2022-11-20T06:36:22;98259.69;;;7.03;99.92
16431;BME280;8325;49.284;7.238;2022-11-20T06:40:33;98258.88;;;7.02;100.00
16431;BME280;8325;49.284;7.238;2022-11-20T06:44:45;98259.22;;;7.15;99.65
16431;BME280;8325;49.284;7.238;2022-11-20T06:48:57;98267.00;;;7.07;99.95
16431;BME280;8325;49.284;7.238;2022-11-20T06:53:09;98268.28;;;7.03;100.00
16431;BME280;8325;49.284;7.238;2022-11-20T06:57:21;98272.81;;;7.01;100.00
16431;BME280;8325;49.284;7.238;2022-11-20T07:01:33;98271.22;;;7.00;100.00
16431;BME280;8325;49.284;7.238;2022-11-20T07:05:44;98274.28;;;7.04;100.00
16431;BME280;8325;49.284;7.238;2022-11-20T07:09:57;98272.19;;;7.07;100.00
16431;BME280;8325;49.284;7.238;2022-11-20T07:14:08;98285.84;;;7.09;100.00
16431;BME280;8325;49.284;7.238;2022-11-20T07:18:20;98283.56;;;7.06;100.00
16431;BME280;8325;49.284;7.238;2022-11-20T07:22:31;98279.66;;;7.10;100.00
16431;BME280;8325;49.284;7.238;2022-11-20T07:26:46;98293.00;;;7.15;100.00
16431;BME280;8325;49.284;7.238;2022-11-20T07:30:57;98296.59;;;7.23;99.90
16431;BME280;8325;49.284;7.238;2022-11-20T07:35:09;98296.91;;;7.20;100.00
16431;BME280;8325;49.284;7.238;2022-11-20T07:39:20;98308.94;;;7.21;99.73
16431;BME280;8325;49.284;7.238;2022-11-20T07:43:32;98320.59;;;7.17;99.73
16431;BME280;8325;49.284;7.238;2022-11-20T07:47:51;98316.09;;;7.35;100.00
16431;BME280;8325;49.284;7.238;2022-11-20T07:52:02;98318.72;;;7.43;100.00
16431;BME280;8325;49.284;7.238;2022-11-20T07:56:15;98315.94;;;7.45;98.20
16431;BME280;8325;49.284;7.238;2022-11-20T08:00:27;98320.97;;;7.38;98.47
16431;BME280;8325;49.284;7.238;2022-11-20T08:04:39;98320.97;;;7.38;98.47
16431;BME280;8325;49.284;7.238;2022-11-20T08:08:51;98322.94;;;7.36;97.97
16431;BME280;8325;49.284;7.238;2022-11-20T08:13:02;98326.00;;;7.31;98.56
16431;BME280;8325;49.284;7.238;2022-11-20T08:17:32;98337.38;;;7.30;97.53
16431;BME280;8325;49.284;7.238;2022-11-20T08:21:44;98339.16;;;7.30;98.27
16431;BME280;8325;49.284;7.238;2022-11-20T08:25:56;98342.41;;;7.32;98.49
16431;BME280;8325;49.284;7.238;2022-11-20T08:30:08;98345.31;;;7.29;98.55
16431;BME280;8325;49.284;7.238;2022-11-20T08:34:19;98351.50;;;7.28;98.60
16431;BME280;8325;49.284;7.238;2022-11-20T08:38:31;98356.38;;;7.31;98.11
16431;BME280;8325;49.284;7.238;2022-11-20T08:42:49;98360.44;;;7.33;97.45
16431;BME280;8325;49.284;7.238;2022-11-20T08:47:01;98363.84;;;7.34;97.06
16431;BME280;8325;49.284;7.238;2022-11-20T08:51:13;98366.41;;;7.26;97.21
16431;BME280;8325;49.284;7.238;2022-11-20T08:55:24;98368.38;;;7.32;96.57
16431;BME280;8325;49.284;7.238;2022-11-20T08:59:36;98375.91;;;7.43;96.96
16431;BME280;8325;49.284;7.238;2022-11-20T09:04:07;98367.13;;;7.44;96.24
16431;BME280;8325;49.284;7.238;2022-11-20T09:08:19;98363.09;;;7.58;96.51
16431;BME280;8325;49.284;7.238;2022-11-20T09:12:30;98370.91;;;7.66;95.79
16431;BME280;8325;49.284;7.238;2022-11-20T09:16:42;98370.44;;;7.71;94.64
16431;BME280;8325;49.284;7.238;2022-11-20T09:20:57;98377.13;;;7.73;96.04
16431;BME280;8325;49.284;7.238;2022-11-20T09:25:09;98380.34;;;7.75;95.90
16431;BME280;8325;49.284;7.238;2022-11-20T09:29:20;98380.53;;;7.90;94.51
16431;BME280;8325;49.284;7.238;2022-11-20T09:33:32;98385.41;;;7.93;95.02
16431;BME280;8325;49.284;7.238;2022-11-20T09:37:44;98387.69;;;7.96;93.67
16431;BME280;8325;49.284;7.238;2022-11-20T09:42:17;98388.69;;;7.95;92.01
16431;BME280;8325;49.284;7.238;2022-11-20T09:46:49;98394.22;;;8.08;93.73
16431;BME280;8325;49.284;7.238;2022-11-20T09:55:34;98382.69;;;8.19;92.77
16431;BME280;8325;49.284;7.238;2022-11-20T09:59:51;98379.25;;;8.27;89.83
16431;BME280;8325;49.284;7.238;2022-11-20T10:04:13;98380.22;;;8.59;89.38
16431;BME280;8325;49.284;7.238;2022-11-20T10:08:43;98373.97;;;8.92;89.58
16431;BME280;8325;49.284;7.238;2022-11-20T10:31:02;98361.78;;;8.85;84.43
16431;BME280;8325;49.284;7.238;2022-11-20T10:40:17;98348.31;;;8.73;84.35
16431;BME280;8325;49.284;7.238;2022-11-20T10:44:28;98338.22;;;8.78;84.16
16431;BME280;8325;49.284;7.238;2022-11-20T10:49:12;98352.84;;;8.79;83.62
16431;BME280;8325;49.284;7.238;2022-11-20T10:53:43;98339.03;;;8.70;84.57
16431;BME280;8325;49.284;7.238;2022-11-20T10:58:13;98336.94;;;8.58;83.04
16431;BME280;8325;49.284;7.238;2022-11-20T11:06:46;98323.59;;;8.61;83.79
16431;BME280;8325;49.284;7.238;2022-11-20T11:11:02;98312.63;;;8.90;82.45
16431;BME280;8325;49.284;7.238;2022-11-20T11:19:43;98307.75;;;9.49;78.92
16431;BME280;8325;49.284;7.238;2022-11-20T11:24:03;98310.16;;;9.51;76.83
16431;BME280;8325;49.284;7.238;2022-11-20T11:28:35;98305.88;;;9.04;76.17
16431;BME280;8325;49.284;7.238;2022-11-20T11:32:47;98287.31;;;8.98;76.60
16431;BME280;8325;49.284;7.238;2022-11-20T11:37:00;98279.00;;;8.72;76.39
16431;BME280;8325;49.284;7.238;2022-11-20T11:41:17;98285.41;;;8.53;76.33
16431;BME280;8325;49.284;7.238;2022-11-20T11:45:30;98287.69;;;8.48;76.81
16431;BME280;8325;49.284;7.238;2022-11-20T11:49:42;98283.31;;;8.32;76.92
16431;BME280;8325;49.284;7.238;2022-11-20T11:53:53;98281.19;;;8.27;75.18
16431;BME280;8325;49.284;7.238;2022-11-20T11:58:53;98277.94;;;8.25;75.77
16431;BME280;8325;49.284;7.238;2022-11-20T12:07:38;98281.31;;;8.34;74.14
16431;BME280;8325;49.284;7.238;2022-11-20T12:12:24;98261.72;;;8.71;72.81
16431;BME280;8325;49.284;7.238;2022-11-20T12:16:39;98263.13;;;8.90;71.60
16431;BME280;8325;49.284;7.238;2022-11-20T12:25:28;98250.25;;;9.19;70.31
16431;BME280;8325;49.284;7.238;2022-11-20T12:30:14;98265.44;;;9.16;69.65
16431;BME280;8325;49.284;7.238;2022-11-20T12:34:43;98257.03;;;9.06;68.60
16431;BME280;8325;49.284;7.238;2022-11-20T12:43:29;98247.91;;;9.02;68.87
16431;BME280;8325;49.284;7.238;2022-11-20T12:57:25;98223.69;;;9.24;70.39
16431;BME280;8325;49.284;7.238;2022-11-20T13:01:52;98216.19;;;8.98;70.40
16431;BME280;8325;49.284;7.238;2022-11-20T13:06:10;98213.16;;;8.86;70.38
16431;BME280;8325;49.284;7.238;2022-11-20T13:10:33;98203.75;;;8.77;70.75
16431;BME280;8325;49.284;7.238;2022-11-20T13:14:55;98200.91;;;8.56;72.48
16431;BME280;8325;49.284;7.238;2022-11-20T13:19:11;98199.31;;;8.55;73.57
16431;BME280;8325;49.284;7.238;2022-11-20T13:23:25;98185.03;;;8.42;72.26
16431;BME280;8325;49.284;7.238;2022-11-20T13:27:46;98177.56;;;8.47;72.11
16431;BME280;8325;49.284;7.238;2022-11-20T13:32:05;98157.41;;;8.41;72.99
16431;BME280;8325;49.284;7.238;2022-11-20T13:36:27;98167.16;;;8.39;73.48
16431;BME280;8325;49.284;7.238;2022-11-20T13:41:00;98150.06;;;8.45;72.37
16431;BME280;8325;49.284;7.238;2022-11-20T13:45:32;98156.53;;;8.49;73.95
16431;BME280;8325;49.284;7.238;2022-11-20T13:49:43;98140.19;;;8.32;73.74
16431;BME280;8325;49.284;7.238;2022-11-20T13:54:47;98137.38;;;8.34;74.58
16431;BME280;8325;49.284;7.238;2022-11-20T13:59:23;98135.94;;;8.39;74.35
16431;BME280;8325;49.284;7.238;2022-11-20T14:03:40;98130.38;;;8.34;73.91
16431;BME280;8325;49.284;7.238;2022-11-20T14:08:23;98127.16;;;8.32;74.46
16431;BME280;8325;49.284;7.238;2022-11-20T14:12:36;98126.34;;;8.32;74.14
16431;BME280;8325;49.284;7.238;2022-11-20T14:16:49;98122.63;;;8.26;74.47
16431;BME280;8325;49.284;7.238;2022-11-20T14:21:01;98128.13;;;8.31;73.01
16431;BME280;8325;49.284;7.238;2022-11-20T14:29:32;98114.72;;;8.11;72.84
16431;BME280;8325;49.284;7.238;2022-11-20T14:33:52;98116.81;;;8.16;73.54
16431;BME280;8325;49.284;7.238;2022-11-20T14:38:10;98112.94;;;8.12;72.66
16431;BME280;8325;49.284;7.238;2022-11-20T14:42:28;98111.66;;;8.07;73.61
16431;BME280;8325;49.284;7.238;2022-11-20T14:46:40;98115.72;;;8.02;74.10
16431;BME280;8325;49.284;7.238;2022-11-20T14:50:51;98111.03;;;7.97;73.98
16431;BME280;8325;49.284;7.238;2022-11-20T14:55:03;98107.81;;;7.87;74.66
16431;BME280;8325;49.284;7.238;2022-11-20T14:59:23;98101.47;;;7.90;75.64
16431;BME280;8325;49.284;7.238;2022-11-20T15:03:40;98101.94;;;7.93;75.65
16431;BME280;8325;49.284;7.238;2022-11-20T15:08:12;98085.88;;;7.90;75.40
16431;BME280;8325;49.284;7.238;2022-11-20T15:12:24;98080.66;;;7.90;76.09
16431;BME280;8325;49.284;7.238;2022-11-20T15:16:35;98075.28;;;7.91;76.05
16431;BME280;8325;49.284;7.238;2022-11-20T15:20:47;98082.81;;;7.78;77.12
16431;BME280;8325;49.284;7.238;2022-11-20T15:24:59;98078.63;;;7.69;77.79
16431;BME280;8325;49.284;7.238;2022-11-20T15:29:13;98072.13;;;7.65;77.87
16431;BME280;8325;49.284;7.238;2022-11-20T15:33:25;98070.53;;;7.64;78.09
16431;BME280;8325;49.284;7.238;2022-11-20T15:37:37;98062.75;;;7.55;78.47
16431;BME280;8325;49.284;7.238;2022-11-20T15:41:49;98053.94;;;7.56;77.84
16431;BME280;8325;49.284;7.238;2022-11-20T15:46:14;98054.63;;;7.50;77.99
16431;BME280;8325;49.284;7.238;2022-11-20T15:50:30;98050.88;;;7.45;78.09
16431;BME280;8325;49.284;7.238;2022-11-20T15:54:45;98047.34;;;7.46;79.34
16431;BME280;8325;49.284;7.238;2022-11-20T15:58:57;98054.00;;;7.40;80.04
16431;BME280;8325;49.284;7.238;2022-11-20T16:03:12;98040.06;;;7.25;81.68
16431;BME280;8325;49.284;7.238;2022-11-20T16:07:24;98051.13;;;7.19;82.74
16431;BME280;8325;49.284;7.238;2022-11-20T16:11:36;98043.66;;;7.07;83.48
16431;BME280;8325;49.284;7.238;2022-11-20T16:15:53;98036.69;;;7.00;84.19
16431;BME280;8325;49.284;7.238;2022-11-20T16:20:13;98033.63;;;6.96;84.95
16431;BME280;8325;49.284;7.238;2022-11-20T16:24:25;98042.72;;;6.84;86.79
16431;BME280;8325;49.284;7.238;2022-11-20T16:28:36;98040.09;;;6.76;86.96
16431;BME280;8325;49.284;7.238;2022-11-20T16:32:48;98031.00;;;6.63;89.08
16431;BME280;8325;49.284;7.238;2022-11-20T16:37:00;98023.22;;;6.63;88.99
16431;BME280;8325;49.284;7.238;2022-11-20T16:41:11;98020.78;;;6.54;88.76
16431;BME280;8325;49.284;7.238;2022-11-20T16:45:26;98013.78;;;6.46;90.01
16431;BME280;8325;49.284;7.238;2022-11-20T16:49:44;98006.66;;;6.48;90.10
16431;BME280;8325;49.284;7.238;2022-11-20T16:53:56;98015.13;;;6.50;89.74
16431;BME280;8325;49.284;7.238;2022-11-20T16:58:07;98027.09;;;6.51;89.83
16431;BME280;8325;49.284;7.238;2022-11-20T17:02:19;98012.03;;;6.55;90.43
16431;BME280;8325;49.284;7.238;2022-11-20T17:06:36;98019.63;;;6.48;90.02
16431;BME280;8325;49.284;7.238;2022-11-20T17:10:48;98025.97;;;6.37;91.01
16431;BME280;8325;49.284;7.238;2022-11-20T17:14:59;98021.25;;;6.33;91.56
16431;BME280;8325;49.284;7.238;2022-11-20T17:19:11;98010.53;;;6.28;92.48
16431;BME280;8325;49.284;7.238;2022-11-20T17:23:22;98011.16;;;6.21;92.93
16431;BME280;8325;49.284;7.238;2022-11-20T17:27:34;98009.69;;;6.11;94.44
16431;BME280;8325;49.284;7.238;2022-11-20T17:31:46;98002.41;;;6.14;94.54
16431;BME280;8325;49.284;7.238;2022-11-20T17:35:59;98002.41;;;6.14;94.47
16431;BME280;8325;49.284;7.238;2022-11-20T17:40:10;97986.84;;;6.14;94.31
16431;BME280;8325;49.284;7.238;2022-11-20T17:44:22;97993.47;;;6.09;95.76
16431;BME280;8325;49.284;7.238;2022-11-20T17:48:35;97983.59;;;6.04;95.66
16431;BME280;8325;49.284;7.238;2022-11-20T17:52:46;97979.03;;;5.98;95.55
16431;BME280;8325;49.284;7.238;2022-11-20T17:56:58;97978.88;;;5.99;95.63
16431;BME280;8325;49.284;7.238;2022-11-20T18:01:28;97972.19;;;5.89;96.91
16431;BME280;8325;49.284;7.238;2022-11-20T18:05:40;97964.22;;;5.82;96.76
16431;BME280;8325;49.284;7.238;2022-11-20T18:09:51;97966.31;;;5.78;97.11
16431;BME280;8325;49.284;7.238;2022-11-20T18:14:05;97952.84;;;5.75;97.25
16431;BME280;8325;49.284;7.238;2022-11-20T18:18:36;97948.47;;;5.75;96.86
16431;BME280;8325;49.284;7.238;2022-11-20T18:22:47;97953.97;;;5.72;97.72
16431;BME280;8325;49.284;7.238;2022-11-20T18:26:59;97951.25;;;5.74;97.53
16431;BME280;8325;49.284;7.238;2022-11-20T18:31:11;97955.94;;;5.70;98.10
16431;BME280;8325;49.284;7.238;2022-11-20T18:35:25;97950.44;;;5.73;98.38
16431;BME280;8325;49.284;7.238;2022-11-20T18:39:37;97933.09;;;5.74;98.85
16431;BME280;8325;49.284;7.238;2022-11-20T18:43:48;97933.72;;;5.68;99.71
16431;BME280;8325;49.284;7.238;2022-11-20T18:48:18;97954.81;;;5.73;99.61
16431;BME280;8325;49.284;7.238;2022-11-20T18:52:33;97947.53;;;5.76;99.87
16431;BME280;8325;49.284;7.238;2022-11-20T18:56:45;97948.16;;;5.78;99.38
16431;BME280;8325;49.284;7.238;2022-11-20T19:01:05;97960.97;;;5.80;100.00
16431;BME280;8325;49.284;7.238;2022-11-20T19:05:17;97941.22;;;5.87;99.68
16431;BME280;8325;49.284;7.238;2022-11-20T19:09:29;97943.19;;;5.85;99.56
16431;BME280;8325;49.284;7.238;2022-11-20T19:13:41;97923.88;;;5.88;99.88
16431;BME280;8325;49.284;7.238;2022-11-20T19:17:52;97919.38;;;5.90;99.19
16431;BME280;8325;49.284;7.238;2022-11-20T19:22:04;97924.25;;;5.93;99.32
16431;BME280;8325;49.284;7.238;2022-11-20T19:26:16;97931.34;;;5.91;99.99
16431;BME280;8325;49.284;7.238;2022-11-20T19:30:28;97933.13;;;5.90;99.51
16431;BME280;8325;49.284;7.238;2022-11-20T19:34:40;97935.44;;;5.93;98.59
16431;BME280;8325;49.284;7.238;2022-11-20T19:38:52;97945.47;;;5.88;99.27
16431;BME280;8325;49.284;7.238;2022-11-20T19:43:04;97950.97;;;5.85;99.05
16431;BME280;8325;49.284;7.238;2022-11-20T19:47:16;97968.63;;;5.90;99.32
16431;BME280;8325;49.284;7.238;2022-11-20T19:51:30;97975.13;;;5.94;99.64
16431;BME280;8325;49.284;7.238;2022-11-20T19:55:42;97974.16;;;6.03;99.37
16431;BME280;8325;49.284;7.238;2022-11-20T20:00:05;97970.63;;;6.04;99.67
16431;BME280;8325;49.284;7.238;2022-11-20T20:04:16;97971.44;;;6.05;100.00
16431;BME280;8325;49.284;7.238;2022-11-20T20:08:29;97973.53;;;6.01;100.00
16431;BME280;8325;49.284;7.238;2022-11-20T20:12:41;97980.03;;;6.05;100.00
16431;BME280;8325;49.284;7.238;2022-11-20T20:16:52;97971.13;;;6.16;100.00
16431;BME280;8325;49.284;7.238;2022-11-20T20:21:05;97982.63;;;6.13;100.00
16431;BME280;8325;49.284;7.238;2022-11-20T20:25:17;97982.47;;;6.15;99.33
16431;BME280;8325;49.284;7.238;2022-11-20T20:29:28;97991.88;;;6.16;98.63
16431;BME280;8325;49.284;7.238;2022-11-20T20:33:41;98000.44;;;6.08;98.42
16431;BME280;8325;49.284;7.238;2022-11-20T20:37:52;97992.22;;;6.13;97.88
16431;BME280;8325;49.284;7.238;2022-11-20T20:42:04;97990.56;;;6.12;97.95
16431;BME280;8325;49.284;7.238;2022-11-20T21:15:14;98005.31;;;6.11;98.74
16431;BME280;8325;49.284;7.238;2022-11-20T21:19:26;97999.50;;;6.17;98.54
16431;BME280;8325;49.284;7.238;2022-11-20T21:23:38;98000.47;;;6.16;98.20
16431;BME280;8325;49.284;7.238;2022-11-20T21:27:50;97996.41;;;6.14;97.94
16431;BME280;8325;49.284;7.238;2022-11-20T21:32:01;97989.75;;;6.11;98.60
16431;BME280;8325;49.284;7.238;2022-11-20T21:36:15;97983.63;;;6.20;98.16
16431;BME280;8325;49.284;7.238;2022-11-20T21:40:27;97983.59;;;6.12;98.13
16431;BME280;8325;49.284;7.238;2022-11-20T21:44:41;97991.72;;;6.17;98.25
16431;BME280;8325;49.284;7.238;2022-11-20T21:48:57;97979.88;;;6.15;98.58
16431;BME280;8325;49.284;7.238;2022-11-20T21:53:09;97982.50;;;6.23;97.70
16431;BME280;8325;49.284;7.238;2022-11-20T21:57:20;97976.16;;;6.17;98.50
16431;BME280;8325;49.284;7.238;2022-11-20T22:01:32;97978.59;;;6.19;98.42
16431;BME280;8325;49.284;7.238;2022-11-20T22:05:52;97965.44;;;6.12;98.80
16431;BME280;8325;49.284;7.238;2022-11-20T22:10:04;97968.06;;;6.20;98.54
16431;BME280;8325;49.284;7.238;2022-11-20T22:14:16;97962.06;;;6.20;98.51
16431;BME280;8325;49.284;7.238;2022-11-20T22:18:31;97968.72;;;6.22;98.67
16431;BME280;8325;49.284;7.238;2022-11-20T22:22:43;97971.31;;;6.22;98.88
16431;BME280;8325;49.284;7.238;2022-11-20T22:26:54;97978.91;;;6.24;99.26
